sensor_id;sensor_type;location;lat;lon;timestamp;pressure;altitude;pressure_sealevel;temperature;humidity
31331;BME280;34067;39.548;-76.088;2022-07-03T00:02:17;101297.56;;;23.86;96.49
31331;BME280;34067;39.548;-76.088;2022-07-03T00:04:45;101304.73;;;24.16;99.04
31331;BME280;34067;39.548;-76.088;2022-07-03T00:07:13;101305.55;;;23.45;100.00
31331;BME280;34067;39.548;-76.088;2022-07-03T00:09:41;101333.17;;;22.84;100.00
31331;BME280;34067;39.548;-76.088;2022-07-03T00:12:10;101354.26;;;24.75;99.02
31331;BME280;34067;39.548;-76.088;2022-07-03T00:14:38;101360.79;;;24.28;94.33
31331;BME280;34067;39.548;-76.088;2022-07-03T00:17:06;101348.10;;;24.74;93.19
31331;BME280;34067;39.548;-76.088;2022-07-03T00:19:33;101327.27;;;25.14;90.52
31331;BME280;34067;39.548;-76.088;2022-07-03T00:22:04;101340.90;;;25.75;88.74
31331;BME280;34067;39.548;-76.088;2022-07-03T00:24:37;101333.53;;;24.24;90.65
31331;BME280;34067;39.548;-76.088;2022-07-03T00:27:09;101307.37;;;25.24;89.35
31331;BME280;34067;39.548;-76.088;2022-07-03T00:29:38;101314.33;;;24.99;91.65
31331;BME280;34067;39.548;-76.088;2022-07-03T00:32:10;101314.20;;;24.02;97.60
31331;BME280;34067;39.548;-76.088;2022-07-03T00:34:39;101303.24;;;23.19;100.00
31331;BME280;34067;39.548;-76.088;2022-07-03T00:37:09;101306.18;;;23.89;100.00
31331;BME280;34067;39.548;-76.088;2022-07-03T00:39:38;101302.60;;;22.93;100.00
31331;BME280;34067;39.548;-76.088;2022-07-03T00:42:07;101300.65;;;24.01;100.00
31331;BME280;34067;39.548;-76.088;2022-07-03T00:44:44;101315.68;;;24.77;100.00
31331;BME280;34067;39.548;-76.088;2022-07-03T00:47:14;101315.54;;;24.58;100.00
31331;BME280;34067;39.548;-76.088;2022-07-03T00:49:45;101303.69;;;24.14;99.83
31331;BME280;34067;39.548;-76.088;2022-07-03T00:52:14;101307.74;;;23.43;100.00
31331;BME280;34067;39.548;-76.088;2022-07-03T00:54:44;101328.96;;;24.34;100.00
31331;BME280;34067;39.548;-76.088;2022-07-03T00:57:15;101346.37;;;23.88;100.00
31331;BME280;34067;39.548;-76.088;2022-07-03T00:59:43;101347.28;;;25.04;98.04
31331;BME280;34067;39.548;-76.088;2022-07-03T01:02:19;101346.64;;;24.58;94.87
31331;BME280;34067;39.548;-76.088;2022-07-03T01:04:59;101342.90;;;24.96;96.48
31331;BME280;34067;39.548;-76.088;2022-07-03T01:07:37;101349.52;;;23.76;100.00
31331;BME280;34067;39.548;-76.088;2022-07-03T01:10:16;101339.67;;;23.10;100.00
31331;BME280;34067;39.548;-76.088;2022-07-03T01:12:55;101344.14;;;23.85;100.00
31331;BME280;34067;39.548;-76.088;2022-07-03T01:15:35;101341.60;;;24.82;100.00
31331;BME280;34067;39.548;-76.088;2022-07-03T01:18:17;101339.48;;;24.12;100.00
31331;BME280;34067;39.548;-76.088;2022-07-03T01:20:55;101327.96;;;24.67;99.45
31331;BME280;34067;39.548;-76.088;2022-07-03T01:23:35;101337.62;;;25.08;97.92
31331;BME280;34067;39.548;-76.088;2022-07-03T01:26:09;101368.50;;;24.92;97.22
31331;BME280;34067;39.548;-76.088;2022-07-03T01:28:40;101393.76;;;25.29;92.64
31331;BME280;34067;39.548;-76.088;2022-07-03T01:31:18;101412.34;;;25.03;92.39
31331;BME280;34067;39.548;-76.088;2022-07-03T01:33:49;101439.67;;;23.88;96.98
31331;BME280;34067;39.548;-76.088;2022-07-03T01:36:19;101465.72;;;23.82;100.00
31331;BME280;34067;39.548;-76.088;2022-07-03T01:38:50;101474.44;;;24.28;100.00
31331;BME280;34067;39.548;-76.088;2022-07-03T01:41:18;101470.97;;;24.67;98.31
31331;BME280;34067;39.548;-76.088;2022-07-03T01:43:48;101473.78;;;24.43;97.79
31331;BME280;34067;39.548;-76.088;2022-07-03T01:46:17;101465.94;;;23.91;96.36
31331;BME280;34067;39.548;-76.088;2022-07-03T01:48:46;101455.12;;;24.39;96.60
31331;BME280;34067;39.548;-76.088;2022-07-03T01:51:16;101429.54;;;24.73;93.90
31331;BME280;34067;39.548;-76.088;2022-07-03T01:53:46;101422.21;;;24.62;93.83
31331;BME280;34067;39.548;-76.088;2022-07-03T01:56:15;101412.31;;;25.54;91.13
31331;BME280;34067;39.548;-76.088;2022-07-03T01:58:44;101421.92;;;24.97;90.73
31331;BME280;34067;39.548;-76.088;2022-07-03T02:01:19;101424.36;;;25.34;90.29
31331;BME280;34067;39.548;-76.088;2022-07-03T02:03:56;101434.55;;;24.60;89.71
31331;BME280;34067;39.548;-76.088;2022-07-03T02:06:39;101446.97;;;25.25;89.37
31331;BME280;34067;39.548;-76.088;2022-07-03T02:09:09;101456.50;;;25.74;88.53
31331;BME280;34067;39.548;-76.088;2022-07-03T02:11:39;101451.28;;;25.34;87.81
31331;BME280;34067;39.548;-76.088;2022-07-03T02:14:12;101438.74;;;25.23;88.11
31331;BME280;34067;39.548;-76.088;2022-07-03T02:16:50;101430.69;;;25.44;89.02
31331;BME280;34067;39.548;-76.088;2022-07-03T02:19:28;101427.80;;;25.15;90.53
31331;BME280;34067;39.548;-76.088;2022-07-03T02:22:01;101420.30;;;25.41;88.80
31331;BME280;34067;39.548;-76.088;2022-07-03T02:24:36;101418.13;;;25.38;89.69
31331;BME280;34067;39.548;-76.088;2022-07-03T02:27:15;101422.19;;;25.45;91.08
31331;BME280;34067;39.548;-76.088;2022-07-03T02:29:49;101412.31;;;25.10;94.55
31331;BME280;34067;39.548;-76.088;2022-07-03T02:32:21;101413.56;;;24.16;95.48
31331;BME280;34067;39.548;-76.088;2022-07-03T02:34:58;101427.30;;;25.09;92.84
31331;BME280;34067;39.548;-76.088;2022-07-03T02:37:31;101441.44;;;25.12;90.75
31331;BME280;34067;39.548;-76.088;2022-07-03T02:40:04;101432.46;;;25.22;90.78
31331;BME280;34067;39.548;-76.088;2022-07-03T02:42:42;101434.45;;;25.84;90.77
31331;BME280;34067;39.548;-76.088;2022-07-03T02:45:11;101430.40;;;25.49;90.11
31331;BME280;34067;39.548;-76.088;2022-07-03T02:47:48;101427.70;;;25.18;90.65
31331;BME280;34067;39.548;-76.088;2022-07-03T02:50:22;101422.77;;;25.39;88.60
31331;BME280;34067;39.548;-76.088;2022-07-03T02:53:03;101417.18;;;25.57;89.05
31331;BME280;34067;39.548;-76.088;2022-07-03T02:55:41;101407.32;;;25.32;88.80
31331;BME280;34067;39.548;-76.088;2022-07-03T02:58:35;101401.70;;;25.53;87.43
31331;BME280;34067;39.548;-76.088;2022-07-03T03:01:09;101394.08;;;24.80;87.70
31331;BME280;34067;39.548;-76.088;2022-07-03T03:03:45;101391.62;;;25.21;87.33
31331;BME280;34067;39.548;-76.088;2022-07-03T03:06:21;101395.55;;;25.46;87.06
31331;BME280;34067;39.548;-76.088;2022-07-03T03:08:50;101391.93;;;25.19;88.49
31331;BME280;34067;39.548;-76.088;2022-07-03T03:11:29;101391.12;;;24.10;91.49
31331;BME280;34067;39.548;-76.088;2022-07-03T03:14:00;101380.84;;;24.79;89.97
31331;BME280;34067;39.548;-76.088;2022-07-03T03:16:33;101384.47;;;25.19;89.46
31331;BME280;34067;39.548;-76.088;2022-07-03T03:19:04;101387.10;;;24.97;88.62
31331;BME280;34067;39.548;-76.088;2022-07-03T03:21:37;101388.26;;;24.65;87.16
31331;BME280;34067;39.548;-76.088;2022-07-03T03:24:11;101386.42;;;24.77;88.03
31331;BME280;34067;39.548;-76.088;2022-07-03T03:26:39;101382.73;;;25.01;89.17
31331;BME280;34067;39.548;-76.088;2022-07-03T03:29:06;101375.21;;;24.98;89.22
31331;BME280;34067;39.548;-76.088;2022-07-03T03:31:34;101377.31;;;24.11;88.24
31331;BME280;34067;39.548;-76.088;2022-07-03T03:34:03;101387.58;;;24.29;87.06
31331;BME280;34067;39.548;-76.088;2022-07-03T03:36:32;101394.32;;;25.18;85.67
31331;BME280;34067;39.548;-76.088;2022-07-03T03:39:00;101403.48;;;25.59;82.59
31331;BME280;34067;39.548;-76.088;2022-07-03T03:41:28;101407.96;;;25.15;82.79
31331;BME280;34067;39.548;-76.088;2022-07-03T03:43:56;101407.51;;;25.27;82.67
31331;BME280;34067;39.548;-76.088;2022-07-03T03:46:24;101406.72;;;25.63;82.34
31331;BME280;34067;39.548;-76.088;2022-07-03T03:48:52;101400.56;;;25.41;82.30
31331;BME280;34067;39.548;-76.088;2022-07-03T03:51:20;101399.70;;;25.67;82.85
31331;BME280;34067;39.548;-76.088;2022-07-03T03:53:48;101403.74;;;25.27;82.40
31331;BME280;34067;39.548;-76.088;2022-07-03T03:56:16;101407.00;;;25.73;81.25
31331;BME280;34067;39.548;-76.088;2022-07-03T03:58:44;101405.06;;;25.53;82.23
31331;BME280;34067;39.548;-76.088;2022-07-03T04:01:12;101400.46;;;24.80;82.13
31331;BME280;34067;39.548;-76.088;2022-07-03T04:03:41;101397.86;;;25.17;82.54
31331;BME280;34067;39.548;-76.088;2022-07-03T04:06:08;101396.28;;;24.97;81.75
31331;BME280;34067;39.548;-76.088;2022-07-03T04:08:36;101394.10;;;25.96;80.59
31331;BME280;34067;39.548;-76.088;2022-07-03T04:11:04;101392.98;;;25.35;80.09
31331;BME280;34067;39.548;-76.088;2022-07-03T04:13:32;101388.45;;;25.43;80.09
31331;BME280;34067;39.548;-76.088;2022-07-03T04:16:01;101385.77;;;25.94;79.09
31331;BME280;34067;39.548;-76.088;2022-07-03T04:18:29;101387.35;;;25.61;78.66
31331;BME280;34067;39.548;-76.088;2022-07-03T04:20:57;101384.70;;;25.75;78.84
31331;BME280;34067;39.548;-76.088;2022-07-03T04:23:25;101388.62;;;26.37;80.16
31331;BME280;34067;39.548;-76.088;2022-07-03T04:25:53;101373.55;;;25.65;82.47
31331;BME280;34067;39.548;-76.088;2022-07-03T04:28:21;101364.59;;;25.15;82.93
31331;BME280;34067;39.548;-76.088;2022-07-03T04:30:49;101367.64;;;24.91;84.73
31331;BME280;34067;39.548;-76.088;2022-07-03T04:33:17;101372.77;;;25.42;86.94
31331;BME280;34067;39.548;-76.088;2022-07-03T04:35:46;101380.51;;;24.66;87.66
31331;BME280;34067;39.548;-76.088;2022-07-03T04:38:13;101387.86;;;25.54;86.44
31331;BME280;34067;39.548;-76.088;2022-07-03T04:40:41;101382.42;;;24.85;87.08
31331;BME280;34067;39.548;-76.088;2022-07-03T04:43:09;101385.32;;;25.25;87.23
31331;BME280;34067;39.548;-76.088;2022-07-03T04:45:37;101388.47;;;25.12;83.91
31331;BME280;34067;39.548;-76.088;2022-07-03T04:48:05;101389.01;;;25.12;84.09
31331;BME280;34067;39.548;-76.088;2022-07-03T04:50:33;101393.79;;;25.43;84.36
31331;BME280;34067;39.548;-76.088;2022-07-03T04:53:00;101399.40;;;25.27;85.07
31331;BME280;34067;39.548;-76.088;2022-07-03T04:55:28;101401.46;;;25.37;84.03
31331;BME280;34067;39.548;-76.088;2022-07-03T04:57:56;101397.54;;;25.18;84.73
31331;BME280;34067;39.548;-76.088;2022-07-03T05:03:18;101379.64;;;25.09;83.75
31331;BME280;34067;39.548;-76.088;2022-07-03T05:05:45;101378.80;;;25.39;83.81
31331;BME280;34067;39.548;-76.088;2022-07-03T05:08:14;101369.84;;;25.22;79.91
31331;BME280;34067;39.548;-76.088;2022-07-03T05:10:42;101371.95;;;25.32;80.74
31331;BME280;34067;39.548;-76.088;2022-07-03T05:13:10;101373.76;;;25.86;81.18
31331;BME280;34067;39.548;-76.088;2022-07-03T05:15:38;101379.69;;;25.56;81.94
31331;BME280;34067;39.548;-76.088;2022-07-03T05:18:06;101379.40;;;26.04;82.85
31331;BME280;34067;39.548;-76.088;2022-07-03T05:20:34;101378.43;;;26.05;83.18
31331;BME280;34067;39.548;-76.088;2022-07-03T05:23:02;101376.37;;;25.38;82.19
31331;BME280;34067;39.548;-76.088;2022-07-03T05:25:31;101378.55;;;25.19;82.53
31331;BME280;34067;39.548;-76.088;2022-07-03T05:28:01;101376.21;;;25.75;82.23
31331;BME280;34067;39.548;-76.088;2022-07-03T05:30:29;101399.34;;;24.83;83.36
31331;BME280;34067;39.548;-76.088;2022-07-03T05:32:58;101418.14;;;25.02;85.47
31331;BME280;34067;39.548;-76.088;2022-07-03T05:35:26;101423.09;;;24.68;86.38
31331;BME280;34067;39.548;-76.088;2022-07-03T05:37:54;101420.06;;;25.02;85.34
31331;BME280;34067;39.548;-76.088;2022-07-03T05:40:22;101428.24;;;24.91;85.31
31331;BME280;34067;39.548;-76.088;2022-07-03T05:42:50;101439.67;;;25.05;82.82
31331;BME280;34067;39.548;-76.088;2022-07-03T05:45:19;101446.44;;;24.82;84.37
31331;BME280;34067;39.548;-76.088;2022-07-03T05:47:46;101447.33;;;25.14;83.14
31331;BME280;34067;39.548;-76.088;2022-07-03T05:50:15;101449.69;;;25.06;83.62
31331;BME280;34067;39.548;-76.088;2022-07-03T05:52:43;101451.94;;;24.49;85.90
31331;BME280;34067;39.548;-76.088;2022-07-03T05:55:11;101451.25;;;24.68;88.32
31331;BME280;34067;39.548;-76.088;2022-07-03T05:57:39;101441.77;;;24.93;86.83
31331;BME280;34067;39.548;-76.088;2022-07-03T06:00:08;101442.22;;;24.29;88.23
31331;BME280;34067;39.548;-76.088;2022-07-03T06:02:36;101439.04;;;23.69;88.31
31331;BME280;34067;39.548;-76.088;2022-07-03T06:05:05;101437.69;;;23.76;89.60
31331;BME280;34067;39.548;-76.088;2022-07-03T06:07:33;101440.47;;;24.29;88.58
31331;BME280;34067;39.548;-76.088;2022-07-03T06:10:02;101433.39;;;24.67;87.59
31331;BME280;34067;39.548;-76.088;2022-07-03T06:12:31;101424.68;;;24.70;88.05
31331;BME280;34067;39.548;-76.088;2022-07-03T06:14:59;101414.57;;;24.31;88.73
31331;BME280;34067;39.548;-76.088;2022-07-03T06:17:26;101408.71;;;24.93;87.78
31331;BME280;34067;39.548;-76.088;2022-07-03T06:19:54;101401.28;;;24.40;86.23
31331;BME280;34067;39.548;-76.088;2022-07-03T06:22:22;101389.81;;;25.22;85.34
31331;BME280;34067;39.548;-76.088;2022-07-03T06:24:51;101384.54;;;24.83;85.18
31331;BME280;34067;39.548;-76.088;2022-07-03T06:27:19;101386.34;;;25.17;84.18
31331;BME280;34067;39.548;-76.088;2022-07-03T06:29:47;101389.90;;;24.59;83.27
31331;BME280;34067;39.548;-76.088;2022-07-03T06:32:15;101391.21;;;24.73;85.46
31331;BME280;34067;39.548;-76.088;2022-07-03T06:34:43;101387.15;;;24.70;84.75
31331;BME280;34067;39.548;-76.088;2022-07-03T06:37:12;101383.23;;;24.77;84.23
31331;BME280;34067;39.548;-76.088;2022-07-03T06:39:40;101383.28;;;25.04;83.68
31331;BME280;34067;39.548;-76.088;2022-07-03T06:42:08;101380.68;;;25.31;82.47
31331;BME280;34067;39.548;-76.088;2022-07-03T06:44:36;101373.10;;;25.47;80.46
31331;BME280;34067;39.548;-76.088;2022-07-03T06:47:04;101372.56;;;25.07;80.70
31331;BME280;34067;39.548;-76.088;2022-07-03T06:49:33;101372.43;;;24.90;80.37
31331;BME280;34067;39.548;-76.088;2022-07-03T06:52:01;101367.95;;;25.13;80.86
31331;BME280;34067;39.548;-76.088;2022-07-03T06:54:30;101365.90;;;25.59;80.88
31331;BME280;34067;39.548;-76.088;2022-07-03T06:56:57;101367.04;;;25.05;83.50
31331;BME280;34067;39.548;-76.088;2022-07-03T06:59:25;101369.00;;;24.72;87.68
31331;BME280;34067;39.548;-76.088;2022-07-03T07:01:53;101370.57;;;24.13;90.41
31331;BME280;34067;39.548;-76.088;2022-07-03T07:04:21;101369.70;;;23.97;92.07
31331;BME280;34067;39.548;-76.088;2022-07-03T07:06:48;101376.56;;;23.70;94.38
31331;BME280;34067;39.548;-76.088;2022-07-03T07:09:16;101378.11;;;23.48;93.48
31331;BME280;34067;39.548;-76.088;2022-07-03T07:11:45;101378.36;;;23.92;94.33
31331;BME280;34067;39.548;-76.088;2022-07-03T07:14:13;101375.10;;;23.54;92.84
31331;BME280;34067;39.548;-76.088;2022-07-03T07:16:40;101372.77;;;23.44;93.98
31331;BME280;34067;39.548;-76.088;2022-07-03T07:19:09;101368.48;;;23.30;94.61
31331;BME280;34067;39.548;-76.088;2022-07-03T07:21:37;101376.09;;;23.45;95.47
31331;BME280;34067;39.548;-76.088;2022-07-03T07:24:05;101380.05;;;23.33;98.00
31331;BME280;34067;39.548;-76.088;2022-07-03T07:26:33;101381.88;;;22.48;100.00
31331;BME280;34067;39.548;-76.088;2022-07-03T07:29:01;101377.76;;;22.18;100.00
31331;BME280;34067;39.548;-76.088;2022-07-03T07:31:29;101385.65;;;22.04;100.00
31331;BME280;34067;39.548;-76.088;2022-07-03T07:33:57;101369.76;;;22.37;100.00
31331;BME280;34067;39.548;-76.088;2022-07-03T07:36:24;101369.36;;;22.41;100.00
31331;BME280;34067;39.548;-76.088;2022-07-03T07:38:52;101358.36;;;22.61;100.00
31331;BME280;34067;39.548;-76.088;2022-07-03T07:41:20;101358.29;;;23.19;100.00
31331;BME280;34067;39.548;-76.088;2022-07-03T07:43:48;101352.40;;;22.82;100.00
31331;BME280;34067;39.548;-76.088;2022-07-03T07:46:16;101350.05;;;23.31;100.00
31331;BME280;34067;39.548;-76.088;2022-07-03T07:48:44;101344.70;;;23.20;100.00
31331;BME280;34067;39.548;-76.088;2022-07-03T07:51:12;101336.90;;;22.98;100.00
31331;BME280;34067;39.548;-76.088;2022-07-03T07:53:40;101334.14;;;23.78;97.09
31331;BME280;34067;39.548;-76.088;2022-07-03T07:56:07;101334.55;;;24.94;92.75
31331;BME280;34067;39.548;-76.088;2022-07-03T07:58:35;101338.89;;;24.78;90.86
31331;BME280;34067;39.548;-76.088;2022-07-03T08:01:03;101335.27;;;24.85;89.99
31331;BME280;34067;39.548;-76.088;2022-07-03T08:03:31;101329.65;;;25.03;88.11
31331;BME280;34067;39.548;-76.088;2022-07-03T08:05:58;101326.77;;;25.54;86.10
31331;BME280;34067;39.548;-76.088;2022-07-03T08:08:26;101329.12;;;25.31;85.87
31331;BME280;34067;39.548;-76.088;2022-07-03T08:10:54;101329.17;;;24.74;89.85
31331;BME280;34067;39.548;-76.088;2022-07-03T08:13:22;101329.93;;;24.44;92.95
31331;BME280;34067;39.548;-76.088;2022-07-03T08:15:50;101333.28;;;25.09;89.43
31331;BME280;34067;39.548;-76.088;2022-07-03T08:18:18;101336.16;;;25.12;87.97
31331;BME280;34067;39.548;-76.088;2022-07-03T08:20:46;101343.03;;;24.68;88.68
31331;BME280;34067;39.548;-76.088;2022-07-03T08:23:14;101349.80;;;24.95;86.95
31331;BME280;34067;39.548;-76.088;2022-07-03T08:25:43;101355.65;;;25.10;85.22
31331;BME280;34067;39.548;-76.088;2022-07-03T08:28:11;101350.69;;;25.36;84.08
31331;BME280;34067;39.548;-76.088;2022-07-03T08:30:39;101348.01;;;25.71;83.19
31331;BME280;34067;39.548;-76.088;2022-07-03T08:33:06;101351.45;;;25.10;81.67
31331;BME280;34067;39.548;-76.088;2022-07-03T08:35:34;101352.01;;;25.53;82.52
31331;BME280;34067;39.548;-76.088;2022-07-03T08:38:03;101351.24;;;25.29;85.79
31331;BME280;34067;39.548;-76.088;2022-07-03T08:40:31;101341.41;;;24.42;88.27
31331;BME280;34067;39.548;-76.088;2022-07-03T08:42:59;101340.33;;;25.51;87.66
31331;BME280;34067;39.548;-76.088;2022-07-03T08:45:28;101343.16;;;25.32;86.44
31331;BME280;34067;39.548;-76.088;2022-07-03T08:47:58;101353.02;;;25.02;85.29
31331;BME280;34067;39.548;-76.088;2022-07-03T08:50:27;101366.57;;;25.24;84.91
31331;BME280;34067;39.548;-76.088;2022-07-03T08:52:55;101367.47;;;25.14;83.30
31331;BME280;34067;39.548;-76.088;2022-07-03T08:55:25;101362.67;;;25.00;83.00
31331;BME280;34067;39.548;-76.088;2022-07-03T08:57:54;101366.05;;;24.98;82.49
31331;BME280;34067;39.548;-76.088;2022-07-03T09:00:23;101379.10;;;25.52;81.64
31331;BME280;34067;39.548;-76.088;2022-07-03T09:02:51;101388.76;;;24.81;82.81
31331;BME280;34067;39.548;-76.088;2022-07-03T09:05:19;101390.38;;;25.38;82.44
31331;BME280;34067;39.548;-76.088;2022-07-03T09:07:47;101397.11;;;25.71;81.07
31331;BME280;34067;39.548;-76.088;2022-07-03T09:10:16;101401.47;;;25.63;82.74
31331;BME280;34067;39.548;-76.088;2022-07-03T09:12:46;101404.53;;;25.59;82.03
31331;BME280;34067;39.548;-76.088;2022-07-03T09:15:14;101400.63;;;25.44;82.38
31331;BME280;34067;39.548;-76.088;2022-07-03T09:17:56;101392.27;;;25.43;82.24
31331;BME280;34067;39.548;-76.088;2022-07-03T09:20:30;101387.11;;;25.23;81.67
31331;BME280;34067;39.548;-76.088;2022-07-03T09:23:10;101380.38;;;25.19;80.91
31331;BME280;34067;39.548;-76.088;2022-07-03T09:25:53;101382.62;;;25.76;80.96
31331;BME280;34067;39.548;-76.088;2022-07-03T09:28:23;101391.04;;;25.71;80.75
31331;BME280;34067;39.548;-76.088;2022-07-03T09:30:59;101388.22;;;25.30;82.46
31331;BME280;34067;39.548;-76.088;2022-07-03T09:33:28;101384.74;;;25.31;85.05
31331;BME280;34067;39.548;-76.088;2022-07-03T09:35:57;101392.02;;;24.82;84.14
31331;BME280;34067;39.548;-76.088;2022-07-03T09:38:25;101401.97;;;25.19;84.13
31331;BME280;34067;39.548;-76.088;2022-07-03T09:40:53;101410.42;;;24.88;84.78
31331;BME280;34067;39.548;-76.088;2022-07-03T09:43:24;101420.93;;;25.48;82.74
31331;BME280;34067;39.548;-76.088;2022-07-03T09:45:54;101429.23;;;25.77;83.29
31331;BME280;34067;39.548;-76.088;2022-07-03T09:48:25;101439.81;;;25.53;82.05
31331;BME280;34067;39.548;-76.088;2022-07-03T09:51:26;101440.72;;;25.63;82.00
31331;BME280;34067;39.548;-76.088;2022-07-03T09:53:56;101444.16;;;24.83;82.08
31331;BME280;34067;39.548;-76.088;2022-07-03T09:56:26;101439.67;;;25.12;82.36
31331;BME280;34067;39.548;-76.088;2022-07-03T09:59:05;101435.99;;;25.18;82.07
31331;BME280;34067;39.548;-76.088;2022-07-03T10:01:35;101439.06;;;24.84;81.09
31331;BME280;34067;39.548;-76.088;2022-07-03T10:04:12;101447.68;;;24.88;83.13
31331;BME280;34067;39.548;-76.088;2022-07-03T10:06:58;101456.90;;;25.12;84.24
31331;BME280;34067;39.548;-76.088;2022-07-03T10:09:27;101458.20;;;24.93;83.22
31331;BME280;34067;39.548;-76.088;2022-07-03T10:11:58;101462.66;;;25.02;84.05
31331;BME280;34067;39.548;-76.088;2022-07-03T10:14:28;101475.05;;;25.15;84.13
31331;BME280;34067;39.548;-76.088;2022-07-03T10:16:57;101472.84;;;25.33;83.78
31331;BME280;34067;39.548;-76.088;2022-07-03T10:19:27;101470.49;;;25.11;83.88
31331;BME280;34067;39.548;-76.088;2022-07-03T10:21:59;101465.66;;;24.93;83.54
31331;BME280;34067;39.548;-76.088;2022-07-03T10:24:30;101474.05;;;24.98;83.80
31331;BME280;34067;39.548;-76.088;2022-07-03T10:26:59;101482.37;;;24.94;82.79
31331;BME280;34067;39.548;-76.088;2022-07-03T10:29:28;101475.21;;;24.66;83.53
31331;BME280;34067;39.548;-76.088;2022-07-03T10:31:56;101466.49;;;25.04;84.94
31331;BME280;34067;39.548;-76.088;2022-07-03T10:34:25;101461.01;;;24.79;84.94
31331;BME280;34067;39.548;-76.088;2022-07-03T10:36:57;101455.42;;;25.43;83.61
31331;BME280;34067;39.548;-76.088;2022-07-03T10:39:32;101455.95;;;25.23;83.34
31331;BME280;34067;39.548;-76.088;2022-07-03T10:42:05;101460.10;;;24.07;87.57
31331;BME280;34067;39.548;-76.088;2022-07-03T10:44:32;101460.34;;;24.20;90.14
31331;BME280;34067;39.548;-76.088;2022-07-03T10:47:01;101459.96;;;23.90;92.37
31331;BME280;34067;39.548;-76.088;2022-07-03T10:49:29;101463.55;;;23.20;97.57
31331;BME280;34067;39.548;-76.088;2022-07-03T10:51:58;101469.31;;;23.31;100.00
31331;BME280;34067;39.548;-76.088;2022-07-03T10:54:27;101471.30;;;22.19;100.00
31331;BME280;34067;39.548;-76.088;2022-07-03T10:57:29;101463.77;;;22.83;100.00
31331;BME280;34067;39.548;-76.088;2022-07-03T11:00:16;101469.27;;;23.17;100.00
31331;BME280;34067;39.548;-76.088;2022-07-03T11:02:47;101479.51;;;23.23;100.00
31331;BME280;34067;39.548;-76.088;2022-07-03T11:05:25;101486.91;;;23.09;100.00
31331;BME280;34067;39.548;-76.088;2022-07-03T11:08:07;101502.76;;;23.58;98.11
31331;BME280;34067;39.548;-76.088;2022-07-03T11:10:36;101510.95;;;23.53;100.00
31331;BME280;34067;39.548;-76.088;2022-07-03T11:13:06;101510.62;;;24.37;94.39
31331;BME280;34067;39.548;-76.088;2022-07-03T11:15:39;101514.95;;;24.25;93.44
31331;BME280;34067;39.548;-76.088;2022-07-03T11:18:13;101520.65;;;23.92;93.08
31331;BME280;34067;39.548;-76.088;2022-07-03T11:21:47;101516.28;;;24.44;91.31
31331;BME280;34067;39.548;-76.088;2022-07-03T11:24:33;101521.38;;;25.15;87.60
31331;BME280;34067;39.548;-76.088;2022-07-03T11:27:21;101528.79;;;25.40;85.88
31331;BME280;34067;39.548;-76.088;2022-07-03T11:29:53;101531.51;;;25.76;84.57
31331;BME280;34067;39.548;-76.088;2022-07-03T11:32:54;101530.85;;;25.93;82.43
31331;BME280;34067;39.548;-76.088;2022-07-03T11:35:55;101528.57;;;25.69;81.30
31331;BME280;34067;39.548;-76.088;2022-07-03T11:38:25;101529.91;;;25.67;80.26
31331;BME280;34067;39.548;-76.088;2022-07-03T11:40:55;101536.08;;;25.51;80.32
31331;BME280;34067;39.548;-76.088;2022-07-03T11:43:24;101541.77;;;25.28;81.20
31331;BME280;34067;39.548;-76.088;2022-07-03T11:45:52;101549.02;;;25.36;80.87
31331;BME280;34067;39.548;-76.088;2022-07-03T11:48:22;101552.34;;;24.74;82.19
31331;BME280;34067;39.548;-76.088;2022-07-03T11:50:50;101549.08;;;24.72;85.27
31331;BME280;34067;39.548;-76.088;2022-07-03T11:53:20;101546.49;;;24.60;86.96
31331;BME280;34067;39.548;-76.088;2022-07-03T11:55:51;101556.60;;;23.94;91.87
31331;BME280;34067;39.548;-76.088;2022-07-03T11:58:20;101557.26;;;23.47;95.16
31331;BME280;34067;39.548;-76.088;2022-07-03T12:00:48;101556.40;;;23.61;98.08
31331;BME280;34067;39.548;-76.088;2022-07-03T12:03:21;101558.40;;;23.29;100.00
31331;BME280;34067;39.548;-76.088;2022-07-03T12:05:54;101569.40;;;22.95;100.00
31331;BME280;34067;39.548;-76.088;2022-07-03T12:08:23;101567.27;;;22.00;100.00
31331;BME280;34067;39.548;-76.088;2022-07-03T12:10:58;101566.00;;;22.05;100.00
31331;BME280;34067;39.548;-76.088;2022-07-03T12:13:26;101569.85;;;22.75;100.00
31331;BME280;34067;39.548;-76.088;2022-07-03T12:15:54;101578.29;;;23.18;100.00
31331;BME280;34067;39.548;-76.088;2022-07-03T12:18:22;101578.86;;;22.61;100.00
31331;BME280;34067;39.548;-76.088;2022-07-03T12:20:50;101588.89;;;23.45;100.00
31331;BME280;34067;39.548;-76.088;2022-07-03T12:23:18;101600.16;;;23.45;100.00
31331;BME280;34067;39.548;-76.088;2022-07-03T12:25:46;101607.18;;;23.10;100.00
31331;BME280;34067;39.548;-76.088;2022-07-03T12:28:14;101615.23;;;23.01;100.00
31331;BME280;34067;39.548;-76.088;2022-07-03T12:30:42;101607.81;;;22.41;100.00
31331;BME280;34067;39.548;-76.088;2022-07-03T12:33:12;101590.40;;;23.08;100.00
31331;BME280;34067;39.548;-76.088;2022-07-03T12:35:40;101578.85;;;23.15;100.00
31331;BME280;34067;39.548;-76.088;2022-07-03T12:38:08;101591.85;;;22.29;100.00
31331;BME280;34067;39.548;-76.088;2022-07-03T12:40:36;101593.44;;;22.62;100.00
31331;BME280;34067;39.548;-76.088;2022-07-03T12:43:04;101609.06;;;22.03;100.00
31331;BME280;34067;39.548;-76.088;2022-07-03T12:45:33;101613.64;;;23.01;100.00
31331;BME280;34067;39.548;-76.088;2022-07-03T12:48:03;101602.09;;;22.83;100.00
31331;BME280;34067;39.548;-76.088;2022-07-03T12:50:48;101601.84;;;23.30;100.00